sensor_id;sensor_type;location;lat;lon;timestamp;temperature;humidity
3944;DHT22;1986;52.546;13.428;2023-05-24T00:00:44;11.00;99.90
3944;DHT22;1986;52.546;13.428;2023-05-24T00:03:11;11.00;99.90
3944;DHT22;1986;52.546;13.428;2023-05-24T00:05:39;10.90;99.90
3944;DHT22;1986;52.546;13.428;2023-05-24T00:08:07;10.90;99.90
3944;DHT22;1986;52.546;13.428;2023-05-24T00:10:34;10.90;99.90
3944;DHT22;1986;52.546;13.428;2023-05-24T00:13:01;10.90;99.90
3944;DHT22;1986;52.546;13.428;2023-05-24T00:15:27;10.90;99.90
3944;DHT22;1986;52.546;13.428;2023-05-24T00:17:56;10.90;99.90
3944;DHT22;1986;52.546;13.428;2023-05-24T00:20:23;10.90;99.90
3944;DHT22;1986;52.546;13.428;2023-05-24T00:22:50;10.90;99.90
3944;DHT22;1986;52.546;13.428;2023-05-24T00:25:17;10.90;99.90
3944;DHT22;1986;52.546;13.428;2023-05-24T00:27:44;10.90;99.90
3944;DHT22;1986;52.546;13.428;2023-05-24T00:30:11;10.80;99.90
3944;DHT22;1986;52.546;13.428;2023-05-24T00:32:38;10.80;99.90
3944;DHT22;1986;52.546;13.428;2023-05-24T00:35:07;10.80;99.90
3944;DHT22;1986;52.546;13.428;2023-05-24T00:37:34;10.80;99.90
3944;DHT22;1986;52.546;13.428;2023-05-24T00:40:02;10.70;99.90
3944;DHT22;1986;52.546;13.428;2023-05-24T00:42:29;10.70;99.90
3944;DHT22;1986;52.546;13.428;2023-05-24T00:44:56;10.70;99.90
3944;DHT22;1986;52.546;13.428;2023-05-24T00:47:23;10.60;99.90
3944;DHT22;1986;52.546;13.428;2023-05-24T00:49:50;10.70;99.90
3944;DHT22;1986;52.546;13.428;2023-05-24T00:52:18;10.80;99.90
3944;DHT22;1986;52.546;13.428;2023-05-24T00:54:45;10.80;99.90
3944;DHT22;1986;52.546;13.428;2023-05-24T00:57:12;10.80;99.90
3944;DHT22;1986;52.546;13.428;2023-05-24T00:59:39;10.80;99.90
3944;DHT22;1986;52.546;13.428;2023-05-24T01:02:06;10.80;99.90
3944;DHT22;1986;52.546;13.428;2023-05-24T01:04:33;10.80;99.90
3944;DHT22;1986;52.546;13.428;2023-05-24T01:07:14;10.80;99.90
3944;DHT22;1986;52.546;13.428;2023-05-24T01:09:54;10.80;99.90
3944;DHT22;1986;52.546;13.428;2023-05-24T01:12:27;10.90;99.90
3944;DHT22;1986;52.546;13.428;2023-05-24T01:15:05;10.90;99.90
3944;DHT22;1986;52.546;13.428;2023-05-24T01:17:39;10.90;99.90
3944;DHT22;1986;52.546;13.428;2023-05-24T01:20:08;10.90;99.90
3944;DHT22;1986;52.546;13.428;2023-05-24T01:22:57;10.90;99.90
3944;DHT22;1986;52.546;13.428;2023-05-24T01:25:44;10.90;99.90
3944;DHT22;1986;52.546;13.428;2023-05-24T01:28:15;10.90;99.90
3944;DHT22;1986;52.546;13.428;2023-05-24T01:30:43;10.90;99.90
3944;DHT22;1986;52.546;13.428;2023-05-24T01:33:10;10.90;99.90
3944;DHT22;1986;52.546;13.428;2023-05-24T01:35:37;10.90;99.90
3944;DHT22;1986;52.546;13.428;2023-05-24T01:38:07;10.90;99.90
3944;DHT22;1986;52.546;13.428;2023-05-24T01:40:34;10.90;99.90
3944;DHT22;1986;52.546;13.428;2023-05-24T01:43:10;10.90;99.90
3944;DHT22;1986;52.546;13.428;2023-05-24T01:45:47;10.90;99.90
3944;DHT22;1986;52.546;13.428;2023-05-24T01:48:20;11.00;99.90
3944;DHT22;1986;52.546;13.428;2023-05-24T01:50:54;11.00;99.90
3944;DHT22;1986;52.546;13.428;2023-05-24T01:53:25;10.90;99.90
3944;DHT22;1986;52.546;13.428;2023-05-24T01:55:55;11.00;99.90
3944;DHT22;1986;52.546;13.428;2023-05-24T01:58:24;10.90;99.90
3944;DHT22;1986;52.546;13.428;2023-05-24T02:00:53;10.90;99.90
3944;DHT22;1986;52.546;13.428;2023-05-24T02:03:21;10.90;99.90
3944;DHT22;1986;52.546;13.428;2023-05-24T02:05:48;10.90;99.90
3944;DHT22;1986;52.546;13.428;2023-05-24T02:08:14;10.80;99.90
3944;DHT22;1986;52.546;13.428;2023-05-24T02:10:41;10.80;99.90
3944;DHT22;1986;52.546;13.428;2023-05-24T02:13:08;10.80;99.90
3944;DHT22;1986;52.546;13.428;2023-05-24T02:15:35;10.80;99.90
3944;DHT22;1986;52.546;13.428;2023-05-24T02:18:04;10.80;99.90
3944;DHT22;1986;52.546;13.428;2023-05-24T02:20:32;10.70;99.90
3944;DHT22;1986;52.546;13.428;2023-05-24T02:23:01;10.80;99.90
3944;DHT22;1986;52.546;13.428;2023-05-24T02:25:28;10.80;99.90
3944;DHT22;1986;52.546;13.428;2023-05-24T02:27:56;10.80;99.90
3944;DHT22;1986;52.546;13.428;2023-05-24T02:30:23;10.80;99.90
3944;DHT22;1986;52.546;13.428;2023-05-24T02:32:50;10.70;99.90
3944;DHT22;1986;52.546;13.428;2023-05-24T02:35:18;10.80;99.90
3944;DHT22;1986;52.546;13.428;2023-05-24T02:37:45;10.70;99.90
3944;DHT22;1986;52.546;13.428;2023-05-24T02:40:12;10.80;99.90
3944;DHT22;1986;52.546;13.428;2023-05-24T02:42:39;10.70;99.90
3944;DHT22;1986;52.546;13.428;2023-05-24T02:45:07;10.70;99.90
3944;DHT22;1986;52.546;13.428;2023-05-24T02:47:36;10.70;99.90
3944;DHT22;1986;52.546;13.428;2023-05-24T02:50:03;10.70;99.90
3944;DHT22;1986;52.546;13.428;2023-05-24T02:52:31;10.70;99.90
3944;DHT22;1986;52.546;13.428;2023-05-24T02:54:58;10.70;99.90
3944;DHT22;1986;52.546;13.428;2023-05-24T02:57:25;10.70;99.90
3944;DHT22;1986;52.546;13.428;2023-05-24T02:59:53;10.70;99.90
3944;DHT22;1986;52.546;13.428;2023-05-24T03:02:20;10.60;99.90
3944;DHT22;1986;52.546;13.428;2023-05-24T03:04:47;10.60;99.90
3944;DHT22;1986;52.546;13.428;2023-05-24T03:07:14;10.50;99.90
3944;DHT22;1986;52.546;13.428;2023-05-24T03:09:43;10.50;99.90
3944;DHT22;1986;52.546;13.428;2023-05-24T03:12:10;10.60;99.90
3944;DHT22;1986;52.546;13.428;2023-05-24T03:14:37;10.50;99.90
3944;DHT22;1986;52.546;13.428;2023-05-24T03:17:04;10.40;99.90
3944;DHT22;1986;52.546;13.428;2023-05-24T03:19:31;10.40;99.90
3944;DHT22;1986;52.546;13.428;2023-05-24T03:21:58;10.30;99.90
3944;DHT22;1986;52.546;13.428;2023-05-24T03:24:25;10.30;99.90
3944;DHT22;1986;52.546;13.428;2023-05-24T03:26:53;10.40;99.90
3944;DHT22;1986;52.546;13.428;2023-05-24T03:29:20;10.40;99.90
3944;DHT22;1986;52.546;13.428;2023-05-24T03:31:47;10.40;99.90
3944;DHT22;1986;52.546;13.428;2023-05-24T03:34:14;10.40;99.90
3944;DHT22;1986;52.546;13.428;2023-05-24T03:36:41;10.30;99.90
3944;DHT22;1986;52.546;13.428;2023-05-24T03:39:08;10.20;99.90
3944;DHT22;1986;52.546;13.428;2023-05-24T03:41:35;10.30;99.90
3944;DHT22;1986;52.546;13.428;2023-05-24T03:44:03;10.30;99.90
3944;DHT22;1986;52.546;13.428;2023-05-24T03:46:30;10.30;99.90
3944;DHT22;1986;52.546;13.428;2023-05-24T03:48:57;10.30;99.90
3944;DHT22;1986;52.546;13.428;2023-05-24T03:51:24;10.30;99.90
3944;DHT22;1986;52.546;13.428;2023-05-24T03:53:54;10.40;99.90
3944;DHT22;1986;52.546;13.428;2023-05-24T03:56:22;10.40;99.90
3944;DHT22;1986;52.546;13.428;2023-05-24T03:58:48;10.40;99.90
3944;DHT22;1986;52.546;13.428;2023-05-24T04:01:18;10.50;99.90
3944;DHT22;1986;52.546;13.428;2023-05-24T04:03:45;10.50;99.90
3944;DHT22;1986;52.546;13.428;2023-05-24T04:06:12;10.60;99.90
3944;DHT22;1986;52.546;13.428;2023-05-24T04:08:39;10.60;99.90
3944;DHT22;1986;52.546;13.428;2023-05-24T04:11:06;10.60;99.90
3944;DHT22;1986;52.546;13.428;2023-05-24T04:13:33;10.60;99.90
3944;DHT22;1986;52.546;13.428;2023-05-24T04:16:00;10.50;99.90
3944;DHT22;1986;52.546;13.428;2023-05-24T04:18:29;10.40;99.90
3944;DHT22;1986;52.546;13.428;2023-05-24T04:20:55;10.50;99.90
3944;DHT22;1986;52.546;13.428;2023-05-24T04:23:24;10.50;99.90
3944;DHT22;1986;52.546;13.428;2023-05-24T04:25:51;10.50;99.90
3944;DHT22;1986;52.546;13.428;2023-05-24T04:28:21;10.50;99.90
3944;DHT22;1986;52.546;13.428;2023-05-24T04:30:49;10.70;99.90
3944;DHT22;1986;52.546;13.428;2023-05-24T04:33:18;10.70;99.90
3944;DHT22;1986;52.546;13.428;2023-05-24T04:35:46;10.70;99.90
3944;DHT22;1986;52.546;13.428;2023-05-24T04:38:13;10.60;99.90
3944;DHT22;1986;52.546;13.428;2023-05-24T04:40:41;10.60;99.90
3944;DHT22;1986;52.546;13.428;2023-05-24T04:43:09;10.50;99.90
3944;DHT22;1986;52.546;13.428;2023-05-24T04:45:38;10.50;99.90
3944;DHT22;1986;52.546;13.428;2023-05-24T04:48:05;10.60;99.90
3944;DHT22;1986;52.546;13.428;2023-05-24T04:50:33;10.60;99.90
3944;DHT22;1986;52.546;13.428;2023-05-24T04:53:03;10.70;99.90
3944;DHT22;1986;52.546;13.428;2023-05-24T04:55:31;10.80;99.90
3944;DHT22;1986;52.546;13.428;2023-05-24T04:57:58;10.80;99.90
3944;DHT22;1986;52.546;13.428;2023-05-24T05:00:26;10.80;99.90
3944;DHT22;1986;52.546;13.428;2023-05-24T05:02:54;10.80;99.90
3944;DHT22;1986;52.546;13.428;2023-05-24T05:05:21;10.80;99.90
3944;DHT22;1986;52.546;13.428;2023-05-24T05:07:49;10.90;99.90
3944;DHT22;1986;52.546;13.428;2023-05-24T05:10:22;11.00;99.90
3944;DHT22;1986;52.546;13.428;2023-05-24T05:12:49;11.10;99.90
3944;DHT22;1986;52.546;13.428;2023-05-24T05:15:17;11.10;99.90
3944;DHT22;1986;52.546;13.428;2023-05-24T05:17:44;11.00;99.90
3944;DHT22;1986;52.546;13.428;2023-05-24T05:20:11;10.90;99.90
3944;DHT22;1986;52.546;13.428;2023-05-24T05:22:38;10.80;99.90
3944;DHT22;1986;52.546;13.428;2023-05-24T05:25:05;10.90;99.90
3944;DHT22;1986;52.546;13.428;2023-05-24T05:27:49;11.00;99.90
3944;DHT22;1986;52.546;13.428;2023-05-24T05:30:16;10.80;99.90
3944;DHT22;1986;52.546;13.428;2023-05-24T05:32:43;10.70;99.90
3944;DHT22;1986;52.546;13.428;2023-05-24T05:35:10;10.60;99.90
3944;DHT22;1986;52.546;13.428;2023-05-24T05:37:37;10.60;99.90
3944;DHT22;1986;52.546;13.428;2023-05-24T05:40:06;10.60;99.90
3944;DHT22;1986;52.546;13.428;2023-05-24T05:42:33;10.60;99.90
3944;DHT22;1986;52.546;13.428;2023-05-24T05:45:07;10.60;99.90
3944;DHT22;1986;52.546;13.428;2023-05-24T05:47:34;10.70;99.90
3944;DHT22;1986;52.546;13.428;2023-05-24T05:50:01;10.60;99.90
3944;DHT22;1986;52.546;13.428;2023-05-24T05:52:29;10.60;99.90
3944;DHT22;1986;52.546;13.428;2023-05-24T05:54:56;10.60;99.90
3944;DHT22;1986;52.546;13.428;2023-05-24T05:57:25;10.60;99.90
3944;DHT22;1986;52.546;13.428;2023-05-24T05:59:53;10.50;99.90
3944;DHT22;1986;52.546;13.428;2023-05-24T06:02:22;10.50;99.90
3944;DHT22;1986;52.546;13.428;2023-05-24T06:04:49;10.50;99.90
3944;DHT22;1986;52.546;13.428;2023-05-24T06:07:16;10.60;99.90
3944;DHT22;1986;52.546;13.428;2023-05-24T06:09:43;10.70;99.90
3944;DHT22;1986;52.546;13.428;2023-05-24T06:12:10;10.70;99.90
3944;DHT22;1986;52.546;13.428;2023-05-24T06:14:37;10.80;99.90
3944;DHT22;1986;52.546;13.428;2023-05-24T06:17:04;10.70;99.90
3944;DHT22;1986;52.546;13.428;2023-05-24T06:19:33;10.70;99.90
3944;DHT22;1986;52.546;13.428;2023-05-24T06:22:01;10.90;99.90
3944;DHT22;1986;52.546;13.428;2023-05-24T06:24:32;10.80;99.90
3944;DHT22;1986;52.546;13.428;2023-05-24T06:27:01;10.90;99.90
3944;DHT22;1986;52.546;13.428;2023-05-24T06:29:30;11.10;99.90
3944;DHT22;1986;52.546;13.428;2023-05-24T06:31:57;11.20;99.90
3944;DHT22;1986;52.546;13.428;2023-05-24T06:34:24;11.20;99.90
3944;DHT22;1986;52.546;13.428;2023-05-24T06:36:54;11.10;99.90
3944;DHT22;1986;52.546;13.428;2023-05-24T06:39:21;10.90;99.90
3944;DHT22;1986;52.546;13.428;2023-05-24T06:41:49;10.90;99.90
3944;DHT22;1986;52.546;13.428;2023-05-24T06:44:18;11.10;99.90
3944;DHT22;1986;52.546;13.428;2023-05-24T06:46:47;11.10;99.90
3944;DHT22;1986;52.546;13.428;2023-05-24T06:49:18;11.00;99.90
3944;DHT22;1986;52.546;13.428;2023-05-24T06:51:47;11.10;99.90
3944;DHT22;1986;52.546;13.428;2023-05-24T06:54:17;11.10;99.90
3944;DHT22;1986;52.546;13.428;2023-05-24T06:56:44;11.00;99.90
3944;DHT22;1986;52.546;13.428;2023-05-24T06:59:11;10.90;99.90
3944;DHT22;1986;52.546;13.428;2023-05-24T07:01:38;11.10;99.90
3944;DHT22;1986;52.546;13.428;2023-05-24T07:04:09;11.30;99.90
3944;DHT22;1986;52.546;13.428;2023-05-24T07:06:36;11.20;99.90
3944;DHT22;1986;52.546;13.428;2023-05-24T07:09:06;11.30;99.90
3944;DHT22;1986;52.546;13.428;2023-05-24T07:11:42;11.50;99.90
3944;DHT22;1986;52.546;13.428;2023-05-24T07:14:12;11.40;99.90
3944;DHT22;1986;52.546;13.428;2023-05-24T07:16:39;11.30;99.90
3944;DHT22;1986;52.546;13.428;2023-05-24T07:19:06;11.30;99.90
3944;DHT22;1986;52.546;13.428;2023-05-24T07:21:34;11.30;99.90
3944;DHT22;1986;52.546;13.428;2023-05-24T07:24:02;11.50;99.90
3944;DHT22;1986;52.546;13.428;2023-05-24T07:26:30;11.30;99.90
3944;DHT22;1986;52.546;13.428;2023-05-24T07:28:59;11.40;99.90
3944;DHT22;1986;52.546;13.428;2023-05-24T07:31:26;11.30;99.90
3944;DHT22;1986;52.546;13.428;2023-05-24T07:33:55;11.40;99.90
3944;DHT22;1986;52.546;13.428;2023-05-24T07:36:23;11.50;99.90
3944;DHT22;1986;52.546;13.428;2023-05-24T07:38:52;11.70;99.90
3944;DHT22;1986;52.546;13.428;2023-05-24T07:41:24;12.10;99.90
3944;DHT22;1986;52.546;13.428;2023-05-24T07:43:52;12.30;99.90
3944;DHT22;1986;52.546;13.428;2023-05-24T07:46:21;12.40;99.90
3944;DHT22;1986;52.546;13.428;2023-05-24T07:48:48;12.10;99.90
3944;DHT22;1986;52.546;13.428;2023-05-24T07:51:15;12.20;99.90
3944;DHT22;1986;52.546;13.428;2023-05-24T07:53:42;12.20;99.90
3944;DHT22;1986;52.546;13.428;2023-05-24T07:56:09;12.20;99.90
3944;DHT22;1986;52.546;13.428;2023-05-24T07:58:36;12.40;99.90
3944;DHT22;1986;52.546;13.428;2023-05-24T08:01:05;12.40;99.90
3944;DHT22;1986;52.546;13.428;2023-05-24T08:03:33;12.30;99.90
3944;DHT22;1986;52.546;13.428;2023-05-24T08:06:01;12.10;99.90
3944;DHT22;1986;52.546;13.428;2023-05-24T08:08:29;11.90;99.90
3944;DHT22;1986;52.546;13.428;2023-05-24T08:10:56;11.90;99.90
3944;DHT22;1986;52.546;13.428;2023-05-24T08:13:23;11.90;99.90
3944;DHT22;1986;52.546;13.428;2023-05-24T08:15:51;11.70;99.90
3944;DHT22;1986;52.546;13.428;2023-05-24T08:18:17;11.70;99.90
3944;DHT22;1986;52.546;13.428;2023-05-24T08:20:51;11.80;99.90
3944;DHT22;1986;52.546;13.428;2023-05-24T08:23:20;12.00;99.90
3944;DHT22;1986;52.546;13.428;2023-05-24T08:25:51;12.20;99.90
3944;DHT22;1986;52.546;13.428;2023-05-24T08:28:19;12.50;99.90
3944;DHT22;1986;52.546;13.428;2023-05-24T08:30:45;12.60;99.90
3944;DHT22;1986;52.546;13.428;2023-05-24T08:33:13;12.70;99.90
3944;DHT22;1986;52.546;13.428;2023-05-24T08:35:40;12.70;99.90
3944;DHT22;1986;52.546;13.428;2023-05-24T08:38:08;12.60;99.90
3944;DHT22;1986;52.546;13.428;2023-05-24T08:40:35;12.40;99.90
3944;DHT22;1986;52.546;13.428;2023-05-24T08:43:02;12.30;99.90
3944;DHT22;1986;52.546;13.428;2023-05-24T08:45:37;12.30;99.90
3944;DHT22;1986;52.546;13.428;2023-05-24T08:48:05;12.40;99.90
3944;DHT22;1986;52.546;13.428;2023-05-24T08:50:32;12.40;99.90
3944;DHT22;1986;52.546;13.428;2023-05-24T08:53:01;12.50;99.90
3944;DHT22;1986;52.546;13.428;2023-05-24T08:55:35;12.50;99.90
3944;DHT22;1986;52.546;13.428;2023-05-24T08:58:03;12.40;99.90
3944;DHT22;1986;52.546;13.428;2023-05-24T09:00:30;12.40;99.90
3944;DHT22;1986;52.546;13.428;2023-05-24T09:02:58;12.50;99.90
3944;DHT22;1986;52.546;13.428;2023-05-24T09:05:28;12.60;99.90
3944;DHT22;1986;52.546;13.428;2023-05-24T09:07:59;12.60;99.90
3944;DHT22;1986;52.546;13.428;2023-05-24T09:10:28;12.30;99.90
3944;DHT22;1986;52.546;13.428;2023-05-24T09:13:01;12.40;99.90
3944;DHT22;1986;52.546;13.428;2023-05-24T09:15:29;12.30;99.90
3944;DHT22;1986;52.546;13.428;2023-05-24T09:17:56;12.20;99.90
3944;DHT22;1986;52.546;13.428;2023-05-24T09:20:23;12.40;99.90
3944;DHT22;1986;52.546;13.428;2023-05-24T09:22:52;12.70;99.90
3944;DHT22;1986;52.546;13.428;2023-05-24T09:25:19;12.90;99.90
3944;DHT22;1986;52.546;13.428;2023-05-24T09:27:50;12.80;99.90
3944;DHT22;1986;52.546;13.428;2023-05-24T09:30:20;12.80;99.90
3944;DHT22;1986;52.546;13.428;2023-05-24T09:32:55;12.80;99.90
3944;DHT22;1986;52.546;13.428;2023-05-24T09:35:25;13.00;99.90
3944;DHT22;1986;52.546;13.428;2023-05-24T09:37:55;12.80;99.90
3944;DHT22;1986;52.546;13.428;2023-05-24T09:40:26;12.60;99.90
3944;DHT22;1986;52.546;13.428;2023-05-24T09:43:05;12.60;99.90
3944;DHT22;1986;52.546;13.428;2023-05-24T09:45:43;12.50;99.90
3944;DHT22;1986;52.546;13.428;2023-05-24T09:48:19;12.70;99.90
3944;DHT22;1986;52.546;13.428;2023-05-24T09:51:02;12.60;99.90
3944;DHT22;1986;52.546;13.428;2023-05-24T09:53:31;12.60;99.90
3944;DHT22;1986;52.546;13.428;2023-05-24T09:55:59;12.90;99.90
3944;DHT22;1986;52.546;13.428;2023-05-24T09:58:30;13.10;99.90
3944;DHT22;1986;52.546;13.428;2023-05-24T10:01:08;13.20;99.90
3944;DHT22;1986;52.546;13.428;2023-05-24T10:03:37;13.30;99.90
3944;DHT22;1986;52.546;13.428;2023-05-24T10:06:04;13.20;99.90
3944;DHT22;1986;52.546;13.428;2023-05-24T10:08:33;13.60;99.90
3944;DHT22;1986;52.546;13.428;2023-05-24T10:11:01;13.30;99.90
3944;DHT22;1986;52.546;13.428;2023-05-24T10:13:29;13.30;99.90
3944;DHT22;1986;52.546;13.428;2023-05-24T10:15:58;13.50;99.90
3944;DHT22;1986;52.546;13.428;2023-05-24T10:18:26;13.30;99.90
3944;DHT22;1986;52.546;13.428;2023-05-24T10:20:55;13.20;99.90
3944;DHT22;1986;52.546;13.428;2023-05-24T10:23:29;13.30;99.90
3944;DHT22;1986;52.546;13.428;2023-05-24T10:26:06;13.50;99.90
3944;DHT22;1986;52.546;13.428;2023-05-24T10:28:39;13.80;99.90
3944;DHT22;1986;52.546;13.428;2023-05-24T10:31:09;13.60;99.90
3944;DHT22;1986;52.546;13.428;2023-05-24T10:33:39;13.90;99.90
3944;DHT22;1986;52.546;13.428;2023-05-24T10:36:14;14.00;99.90
3944;DHT22;1986;52.546;13.428;2023-05-24T10:38:42;14.20;99.90
3944;DHT22;1986;52.546;13.428;2023-05-24T10:41:12;14.30;99.90
3944;DHT22;1986;52.546;13.428;2023-05-24T10:43:39;14.50;99.90
3944;DHT22;1986;52.546;13.428;2023-05-24T10:46:08;14.70;99.90
3944;DHT22;1986;52.546;13.428;2023-05-24T10:48:38;14.80;99.90
3944;DHT22;1986;52.546;13.428;2023-05-24T10:51:33;15.10;99.90
3944;DHT22;1986;52.546;13.428;2023-05-24T10:54:16;14.70;99.90
3944;DHT22;1986;52.546;13.428;2023-05-24T10:56:46;14.80;99.90
3944;DHT22;1986;52.546;13.428;2023-05-24T10:59:46;15.00;99.90
3944;DHT22;1986;52.546;13.428;2023-05-24T11:02:33;14.70;99.90
3944;DHT22;1986;52.546;13.428;2023-05-24T11:05:08;14.50;99.90
3944;DHT22;1986;52.546;13.428;2023-05-24T11:07:40;14.50;99.90
3944;DHT22;1986;52.546;13.428;2023-05-24T11:10:14;14.30;99.90
3944;DHT22;1986;52.546;13.428;2023-05-24T11:12:43;14.30;99.90
3944;DHT22;1986;52.546;13.428;2023-05-24T11:15:12;14.30;99.90
3944;DHT22;1986;52.546;13.428;2023-05-24T11:18:12;14.30;99.90
3944;DHT22;1986;52.546;13.428;2023-05-24T11:20:43;14.30;99.90
3944;DHT22;1986;52.546;13.428;2023-05-24T11:23:12;14.10;99.90
3944;DHT22;1986;52.546;13.428;2023-05-24T11:25:40;14.00;99.90
3944;DHT22;1986;52.546;13.428;2023-05-24T11:28:10;13.90;99.90
3944;DHT22;1986;52.546;13.428;2023-05-24T11:30:42;13.90;99.90
3944;DHT22;1986;52.546;13.428;2023-05-24T11:33:13;14.00;99.90
3944;DHT22;1986;52.546;13.428;2023-05-24T11:35:42;14.00;99.90
3944;DHT22;1986;52.546;13.428;2023-05-24T11:38:09;14.20;99.90
3944;DHT22;1986;52.546;13.428;2023-05-24T11:40:38;14.40;99.90
3944;DHT22;1986;52.546;13.428;2023-05-24T11:43:10;14.90;99.90
3944;DHT22;1986;52.546;13.428;2023-05-24T11:45:38;15.00;99.90
3944;DHT22;1986;52.546;13.428;2023-05-24T11:48:07;15.20;99.90
3944;DHT22;1986;52.546;13.428;2023-05-24T11:50:38;14.60;99.90
3944;DHT22;1986;52.546;13.428;2023-05-24T11:53:08;14.50;99.90
3944;DHT22;1986;52.546;13.428;2023-05-24T11:55:36;14.70;99.90
3944;DHT22;1986;52.546;13.428;2023-05-24T11:58:10;14.70;99.90
3944;DHT22;1986;52.546;13.428;2023-05-24T12:00:37;15.10;99.90
3944;DHT22;1986;52.546;13.428;2023-05-24T12:03:04;15.30;99.90
3944;DHT22;1986;52.546;13.428;2023-05-24T12:05:33;15.30;99.90
3944;DHT22;1986;52.546;13.428;2023-05-24T12:08:08;15.20;99.90
3944;DHT22;1986;52.546;13.428;2023-05-24T12:10:40;15.50;99.90
3944;DHT22;1986;52.546;13.428;2023-05-24T12:13:35;15.00;99.90
3944;DHT22;1986;52.546;13.428;2023-05-24T12:16:02;15.10;99.90
3944;DHT22;1986;52.546;13.428;2023-05-24T12:18:30;15.30;99.90
3944;DHT22;1986;52.546;13.428;2023-05-24T12:20:57;15.30;99.90
3944;DHT22;1986;52.546;13.428;2023-05-24T12:23:26;15.30;99.90
3944;DHT22;1986;52.546;13.428;2023-05-24T12:25:57;15.10;99.90
3944;DHT22;1986;52.546;13.428;2023-05-24T12:28:26;14.80;99.90
3944;DHT22;1986;52.546;13.428;2023-05-24T12:30:53;14.80;99.90
3944;DHT22;1986;52.546;13.428;2023-05-24T12:33:21;14.50;99.90
3944;DHT22;1986;52.546;13.428;2023-05-24T12:35:50;14.50;99.90
3944;DHT22;1986;52.546;13.428;2023-05-24T12:38:18;14.60;99.90
3944;DHT22;1986;52.546;13.428;2023-05-24T12:40:54;14.60;99.90
3944;DHT22;1986;52.546;13.428;2023-05-24T12:43:22;14.70;99.90
3944;DHT22;1986;52.546;13.428;2023-05-24T12:45:49;14.80;99.90
3944;DHT22;1986;52.546;13.428;2023-05-24T12:48:16;14.70;99.90
3944;DHT22;1986;52.546;13.428;2023-05-24T12:50:44;14.50;99.90
3944;DHT22;1986;52.546;13.428;2023-05-24T12:53:11;14.60;99.90
3944;DHT22;1986;52.546;13.428;2023-05-24T12:55:39;14.60;99.90
3944;DHT22;1986;52.546;13.428;2023-05-24T12:58:07;15.00;99.90
3944;DHT22;1986;52.546;13.428;2023-05-24T13:00:34;15.20;99.90
3944;DHT22;1986;52.546;13.428;2023-05-24T13:03:01;15.30;99.90
3944;DHT22;1986;52.546;13.428;2023-05-24T13:05:28;15.60;99.90
3944;DHT22;1986;52.546;13.428;2023-05-24T13:07:57;15.70;99.90
3944;DHT22;1986;52.546;13.428;2023-05-24T13:10:27;15.80;99.90
3944;DHT22;1986;52.546;13.428;2023-05-24T13:12:54;16.10;99.90
3944;DHT22;1986;52.546;13.428;2023-05-24T13:15:31;16.20;98.90
3944;DHT22;1986;52.546;13.428;2023-05-24T13:18:01;16.20;99.40
3944;DHT22;1986;52.546;13.428;2023-05-24T13:20:31;16.20;98.90
3944;DHT22;1986;52.546;13.428;2023-05-24T13:23:01;16.40;99.00
3944;DHT22;1986;52.546;13.428;2023-05-24T13:25:28;16.50;99.60
3944;DHT22;1986;52.546;13.428;2023-05-24T13:27:57;16.30;99.70
3944;DHT22;1986;52.546;13.428;2023-05-24T13:30:25;16.40;99.90
3944;DHT22;1986;52.546;13.428;2023-05-24T13:32:53;16.20;99.90
3944;DHT22;1986;52.546;13.428;2023-05-24T13:35:21;16.40;99.90
3944;DHT22;1986;52.546;13.428;2023-05-24T13:37:49;16.70;99.10
3944;DHT22;1986;52.546;13.428;2023-05-24T13:40:19;16.40;98.90
3944;DHT22;1986;52.546;13.428;2023-05-24T13:42:46;16.30;98.70
3944;DHT22;1986;52.546;13.428;2023-05-24T13:45:13;16.30;98.40
3944;DHT22;1986;52.546;13.428;2023-05-24T13:47:42;16.40;99.00
3944;DHT22;1986;52.546;13.428;2023-05-24T13:50:10;16.00;97.90
3944;DHT22;1986;52.546;13.428;2023-05-24T13:52:37;15.80;98.00
3944;DHT22;1986;52.546;13.428;2023-05-24T13:55:05;16.10;98.80
3944;DHT22;1986;52.546;13.428;2023-05-24T13:57:32;16.20;98.20
3944;DHT22;1986;52.546;13.428;2023-05-24T13:59:59;16.50;98.50
3944;DHT22;1986;52.546;13.428;2023-05-24T14:02:27;16.60;96.80
3944;DHT22;1986;52.546;13.428;2023-05-24T14:04:56;16.60;97.00
3944;DHT22;1986;52.546;13.428;2023-05-24T14:07:23;16.70;96.70
3944;DHT22;1986;52.546;13.428;2023-05-24T14:09:50;16.60;96.90
3944;DHT22;1986;52.546;13.428;2023-05-24T14:12:21;16.60;96.60
3944;DHT22;1986;52.546;13.428;2023-05-24T14:14:49;16.80;97.00
3944;DHT22;1986;52.546;13.428;2023-05-24T14:17:21;16.90;96.50
3944;DHT22;1986;52.546;13.428;2023-05-24T14:19:48;17.10;96.20
3944;DHT22;1986;52.546;13.428;2023-05-24T14:22:19;17.00;95.60
3944;DHT22;1986;52.546;13.428;2023-05-24T14:24:47;16.80;95.80
3944;DHT22;1986;52.546;13.428;2023-05-24T14:27:19;16.70;96.00
3944;DHT22;1986;52.546;13.428;2023-05-24T14:29:46;16.60;96.10
3944;DHT22;1986;52.546;13.428;2023-05-24T14:32:13;16.20;96.80
3944;DHT22;1986;52.546;13.428;2023-05-24T14:34:42;16.20;97.40
3944;DHT22;1986;52.546;13.428;2023-05-24T14:37:10;16.10;97.20
3944;DHT22;1986;52.546;13.428;2023-05-24T14:39:53;16.00;98.10
3944;DHT22;1986;52.546;13.428;2023-05-24T14:42:22;16.00;98.70
3944;DHT22;1986;52.546;13.428;2023-05-24T14:44:49;16.00;98.30
3944;DHT22;1986;52.546;13.428;2023-05-24T14:47:16;16.20;98.60
3944;DHT22;1986;52.546;13.428;2023-05-24T14:49:45;16.30;97.60
3944;DHT22;1986;52.546;13.428;2023-05-24T14:52:12;16.10;97.40
3944;DHT22;1986;52.546;13.428;2023-05-24T14:54:39;16.20;97.70
3944;DHT22;1986;52.546;13.428;2023-05-24T14:57:09;16.30;98.30
3944;DHT22;1986;52.546;13.428;2023-05-24T14:59:37;16.40;97.30
3944;DHT22;1986;52.546;13.428;2023-05-24T15:02:04;16.40;96.90
3944;DHT22;1986;52.546;13.428;2023-05-24T15:04:32;16.20;96.90
3944;DHT22;1986;52.546;13.428;2023-05-24T15:07:02;16.50;97.60
3944;DHT22;1986;52.546;13.428;2023-05-24T15:09:29;16.70;97.30
3944;DHT22;1986;52.546;13.428;2023-05-24T15:11:56;16.70;97.00
3944;DHT22;1986;52.546;13.428;2023-05-24T15:14:24;17.00;96.80
3944;DHT22;1986;52.546;13.428;2023-05-24T15:16:54;16.90;96.90
3944;DHT22;1986;52.546;13.428;2023-05-24T15:19:21;16.70;97.30
3944;DHT22;1986;52.546;13.428;2023-05-24T15:21:48;16.70;97.90
3944;DHT22;1986;52.546;13.428;2023-05-24T15:24:15;16.70;97.60
3944;DHT22;1986;52.546;13.428;2023-05-24T15:26:42;16.50;97.60
3944;DHT22;1986;52.546;13.428;2023-05-24T15:29:11;16.40;97.90
3944;DHT22;1986;52.546;13.428;2023-05-24T15:31:40;16.40;98.20
3944;DHT22;1986;52.546;13.428;2023-05-24T15:34:07;16.60;98.10
3944;DHT22;1986;52.546;13.428;2023-05-24T15:36:34;16.60;98.10
3944;DHT22;1986;52.546;13.428;2023-05-24T15:39:02;16.60;98.00
3944;DHT22;1986;52.546;13.428;2023-05-24T15:41:30;16.60;97.70
3944;DHT22;1986;52.546;13.428;2023-05-24T15:44:00;16.70;97.70
3944;DHT22;1986;52.546;13.428;2023-05-24T15:46:33;16.70;97.20
3944;DHT22;1986;52.546;13.428;2023-05-24T15:49:06;16.80;97.00
3944;DHT22;1986;52.546;13.428;2023-05-24T15:51:33;16.90;96.90
3944;DHT22;1986;52.546;13.428;2023-05-24T15:54:02;16.80;97.00
3944;DHT22;1986;52.546;13.428;2023-05-24T15:56:29;16.90;97.20